Time,TemperatureF,DewpointF,PressureIn,WindDirection,WindDirectionDegrees,WindSpeedMPH,WindSpeedGustMPH,Humidity,HourlyPrecipIn,Conditions,Clouds,dailyrainin,SoftwareType,DateUTC
2013-02-18 00:01:00,43.0,9.0,29.89,WNW,285,0.0,-999.0,24,-99.99,,,-99.99,,2013-02-18 07:01:00,
2013-02-18 00:11:00,43.0,9.0,29.89,WNW,285,0.0,-999.0,24,-99.99,,,-99.99,,2013-02-18 07:11:00,
2013-02-18 00:21:00,43.0,10.0,29.90,WNW,288,1.0,-999.0,25,-99.99,,,-99.99,,2013-02-18 07:21:00,
2013-02-18 00:31:00,43.0,10.0,29.89,WNW,288,0.0,-999.0,26,-99.99,,,-99.99,,2013-02-18 07:31:00,
2013-02-18 00:42:00,43.0,10.0,29.89,WNW,288,0.0,-999.0,26,-99.99,,,-99.99,,2013-02-18 07:42:00,
2013-02-18 00:52:00,42.0,11.0,29.89,West,278,0.0,-999.0,28,-99.99,,,-99.99,,2013-02-18 07:52:00,
2013-02-18 01:01:00,41.0,9.0,29.89,SE,126,0.0,-999.0,26,-99.99,,,-99.99,,2013-02-18 08:01:00,
2013-02-18 01:11:00,41.0,9.0,29.89,SE,126,0.0,-999.0,26,-99.99,,,-99.99,,2013-02-18 08:11:00,
2013-02-18 01:21:00,43.0,10.0,29.89,North,351,1.0,-999.0,25,-99.99,,,-99.99,,2013-02-18 08:21:00,
2013-02-18 01:32:00,42.0,10.0,29.90,North,351,0.0,-999.0,26,-99.99,,,-99.99,,2013-02-18 08:32:00,
2013-02-18 01:41:00,42.0,10.0,29.90,North,351,0.0,-999.0,26,-99.99,,,-99.99,,2013-02-18 08:41:00,
2013-02-18 01:52:00,42.0,8.0,29.89,WNW,295,1.0,-999.0,24,-99.99,,,-99.99,,2013-02-18 08:52:00,
2013-02-18 02:02:00,42.0,8.0,29.90,WNW,295,0.0,-999.0,24,-99.99,,,-99.99,,2013-02-18 09:02:00,
2013-02-18 02:11:00,42.0,8.0,29.90,WNW,295,0.0,-999.0,24,-99.99,,,-99.99,,2013-02-18 09:11:00,
2013-02-18 02:22:00,42.0,8.0,29.91,WNW,292,0.0,-999.0,24,-99.99,,,-99.99,,2013-02-18 09:22:00,
2013-02-18 02:31:00,42.0,9.0,29.92,WNW,292,0.0,-999.0,25,-99.99,,,-99.99,,2013-02-18 09:31:00,
2013-02-18 02:41:00,42.0,9.0,29.92,WNW,292,0.0,-999.0,25,-99.99,,,-99.99,,2013-02-18 09:41:00,
2013-02-18 02:52:00,41.0,9.0,29.92,WNW,292,0.0,-999.0,26,-99.99,,,-99.99,,2013-02-18 09:52:00,
2013-02-18 03:01:00,40.0,9.0,29.92,WNW,292,0.0,-999.0,27,-99.99,,,-99.99,,2013-02-18 10:01:00,
2013-02-18 03:11:00,40.0,9.0,29.92,WNW,292,0.0,-999.0,27,-99.99,,,-99.99,,2013-02-18 10:11:00,
2013-02-18 03:21:00,40.0,9.0,29.92,WNW,292,0.0,-999.0,27,-99.99,,,-99.99,,2013-02-18 10:21:00,
2013-02-18 03:31:00,38.0,8.0,29.92,WNW,292,1.0,-999.0,28,-99.99,,,-99.99,,2013-02-18 10:31:00,
2013-02-18 03:41:00,38.0,8.0,29.92,WNW,292,1.0,-999.0,28,-99.99,,,-99.99,,2013-02-18 10:41:00,
2013-02-18 03:52:00,38.0,9.0,29.93,WNW,289,3.0,-999.0,29,-99.99,,,-99.99,,2013-02-18 10:52:00,
2013-02-18 04:01:00,38.0,9.0,29.93,WNW,289,3.0,-999.0,29,-99.99,,,-99.99,,2013-02-18 11:01:00,
2013-02-18 04:11:00,38.0,9.0,29.93,WNW,289,3.0,-999.0,29,-99.99,,,-99.99,,2013-02-18 11:11:00,
2013-02-18 04:21:00,39.0,9.0,29.93,West,268,2.0,-999.0,28,-99.99,,,-99.99,,2013-02-18 11:21:00,
2013-02-18 04:31:00,39.0,9.0,29.93,West,268,3.0,-999.0,29,-99.99,,,-99.99,,2013-02-18 11:31:00,
2013-02-18 04:43:00,39.0,9.0,29.93,West,268,3.0,-999.0,29,-99.99,,,-99.99,,2013-02-18 11:43:00,
2013-02-18 04:52:00,39.0,9.0,29.93,West,268,3.0,-999.0,29,-99.99,,,-99.99,,2013-02-18 11:52:00,
2013-02-18 05:21:00,39.0,9.0,29.94,West,268,2.0,-999.0,29,-99.99,,,-99.99,,2013-02-18 12:21:00,
2013-02-18 05:31:00,38.0,10.0,29.93,West,268,0.0,-999.0,31,-99.99,,,-99.99,,2013-02-18 12:31:00,
2013-02-18 05:42:00,38.0,10.0,29.93,West,268,0.0,-999.0,31,-99.99,,,-99.99,,2013-02-18 12:42:00,
2013-02-18 05:53:00,37.0,10.0,29.94,West,268,0.0,-999.0,32,-99.99,,,-99.99,,2013-02-18 12:53:00,
2013-02-18 06:02:00,36.0,10.0,29.94,West,268,1.0,-999.0,33,-99.99,,,-99.99,,2013-02-18 13:02:00,
2013-02-18 06:11:00,36.0,10.0,29.94,West,268,1.0,-999.0,33,-99.99,,,-99.99,,2013-02-18 13:11:00,
2013-02-18 06:22:00,36.0,10.0,29.95,West,268,0.0,-999.0,34,-99.99,,,-99.99,,2013-02-18 13:22:00,
2013-02-18 06:31:00,35.0,9.0,29.96,West,268,0.0,-999.0,34,-99.99,,,-99.99,,2013-02-18 13:31:00,
2013-02-18 06:41:00,35.0,9.0,29.96,West,268,0.0,-999.0,34,-99.99,,,-99.99,,2013-02-18 13:41:00,
2013-02-18 06:53:00,34.0,11.0,29.96,West,268,0.0,-999.0,38,-99.99,,,-99.99,,2013-02-18 13:53:00,
2013-02-18 07:01:00,32.0,10.0,29.96,West,268,0.0,-999.0,40,-99.99,,,-99.99,,2013-02-18 14:01:00,
2013-02-18 07:11:00,32.0,10.0,29.96,West,268,0.0,-999.0,40,-99.99,,,-99.99,,2013-02-18 14:11:00,
2013-02-18 07:21:00,32.0,10.0,29.97,West,268,0.0,-999.0,39,-99.99,,,-99.99,,2013-02-18 14:21:00,
2013-02-18 07:31:00,32.0,12.0,29.97,West,268,1.0,-999.0,42,-99.99,,,-99.99,,2013-02-18 14:31:00,
2013-02-18 07:41:00,32.0,12.0,29.97,West,268,1.0,-999.0,42,-99.99,,,-99.99,,2013-02-18 14:41:00,
2013-02-18 07:53:00,33.0,10.0,29.98,West,268,0.0,-999.0,38,-99.99,,,-99.99,,2013-02-18 14:53:00,
2013-02-18 08:01:00,35.0,14.0,29.98,West,268,0.0,-999.0,41,-99.99,,,-99.99,,2013-02-18 15:01:00,
2013-02-18 08:11:00,35.0,14.0,29.98,West,268,0.0,-999.0,41,-99.99,,,-99.99,,2013-02-18 15:11:00,
2013-02-18 08:21:00,39.0,14.0,29.98,West,268,0.0,-999.0,35,-99.99,,,-99.99,,2013-02-18 15:21:00,
2013-02-18 08:31:00,44.0,12.0,29.98,East,98,0.0,-999.0,27,-99.99,,,-99.99,,2013-02-18 15:31:00,
2013-02-18 08:41:00,44.0,12.0,29.98,East,98,0.0,-999.0,27,-99.99,,,-99.99,,2013-02-18 15:41:00,
2013-02-18 08:52:00,49.0,10.0,29.98,East,98,0.0,-999.0,20,-99.99,,,-99.99,,2013-02-18 15:52:00,
2013-02-18 09:01:00,51.0,9.0,29.98,SW,233,0.0,-999.0,18,-99.99,,,-99.99,,2013-02-18 16:01:00,
2013-02-18 09:21:00,52.0,11.0,29.98,SW,232,0.0,-999.0,19,-99.99,,,-99.99,,2013-02-18 16:21:00,
2013-02-18 09:31:00,53.0,11.0,29.98,SSW,198,0.0,-999.0,18,-99.99,,,-99.99,,2013-02-18 16:31:00,
2013-02-18 09:41:00,53.0,11.0,29.98,SSW,198,0.0,-999.0,18,-99.99,,,-99.99,,2013-02-18 16:41:00,
2013-02-18 09:52:00,54.0,14.0,29.98,NE,40,1.0,-999.0,20,-99.99,,,-99.99,,2013-02-18 16:52:00,
2013-02-18 10:02:00,54.0,14.0,29.98,NE,38,1.0,-999.0,20,-99.99,,,-99.99,,2013-02-18 17:02:00,
2013-02-18 10:11:00,54.0,14.0,29.98,NE,38,1.0,-999.0,20,-99.99,,,-99.99,,2013-02-18 17:11:00,
2013-02-18 10:21:00,55.0,11.0,29.98,NNE,33,2.0,-999.0,17,-99.99,,,-99.99,,2013-02-18 17:21:00,
2013-02-18 10:31:00,56.0,12.0,29.98,NNE,30,1.0,-999.0,17,-99.99,,,-99.99,,2013-02-18 17:31:00,
2013-02-18 10:42:00,56.0,12.0,29.98,NNE,30,1.0,-999.0,17,-99.99,,,-99.99,,2013-02-18 17:42:00,
2013-02-18 10:52:00,58.0,12.0,29.97,West,269,2.0,-999.0,16,-99.99,,,-99.99,,2013-02-18 17:52:00,
2013-02-18 11:01:00,58.0,9.0,29.97,NW,321,2.0,-999.0,14,-99.99,,,-99.99,,2013-02-18 18:01:00,
2013-02-18 11:11:00,58.0,9.0,29.97,NW,321,2.0,-999.0,14,-99.99,,,-99.99,,2013-02-18 18:11:00,
2013-02-18 11:22:00,58.0,9.0,29.97,NW,321,2.0,-999.0,14,-99.99,,,-99.99,,2013-02-18 18:22:00,
2013-02-18 11:31:00,59.0,8.0,29.97,South,186,1.0,-999.0,13,-99.99,,,-99.99,,2013-02-18 18:31:00,
2013-02-18 11:41:00,59.0,8.0,29.97,South,186,1.0,-999.0,13,-99.99,,,-99.99,,2013-02-18 18:41:00,
2013-02-18 11:52:00,60.0,11.0,29.96,South,185,0.0,-999.0,14,-99.99,,,-99.99,,2013-02-18 18:52:00,
2013-02-18 12:02:00,61.0,10.0,29.96,NNE,14,0.0,-999.0,13,-99.99,,,-99.99,,2013-02-18 19:02:00,
2013-02-18 12:11:00,61.0,10.0,29.96,NNE,14,0.0,-999.0,13,-99.99,,,-99.99,,2013-02-18 19:11:00,
2013-02-18 12:21:00,62.0,11.0,29.96,NE,40,2.0,-999.0,13,-99.99,,,-99.99,,2013-02-18 19:21:00,
2013-02-18 12:32:00,62.0,11.0,29.95,NNE,15,2.0,-999.0,13,-99.99,,,-99.99,,2013-02-18 19:32:00,
2013-02-18 12:42:00,62.0,11.0,29.95,NNE,15,2.0,-999.0,13,-99.99,,,-99.99,,2013-02-18 19:42:00,
2013-02-18 12:52:00,62.0,9.0,29.94,North,351,1.0,-999.0,12,-99.99,,,-99.99,,2013-02-18 19:52:00,
2013-02-18 13:01:00,63.0,10.0,29.93,North,11,1.0,-999.0,12,-99.99,,,-99.99,,2013-02-18 20:01:00,
2013-02-18 13:11:00,63.0,10.0,29.93,North,11,1.0,-999.0,12,-99.99,,,-99.99,,2013-02-18 20:11:00,
2013-02-18 13:21:00,63.0,10.0,29.92,NE,40,1.0,-999.0,12,-99.99,,,-99.99,,2013-02-18 20:21:00,
2013-02-18 13:31:00,63.0,8.0,29.91,ENE,65,1.0,-999.0,11,-99.99,,,-99.99,,2013-02-18 20:31:00,
2013-02-18 13:41:00,63.0,8.0,29.91,ENE,65,1.0,-999.0,11,-99.99,,,-99.99,,2013-02-18 20:41:00,
2013-02-18 13:53:00,63.0,8.0,29.91,NE,34,1.0,-999.0,11,-99.99,,,-99.99,,2013-02-18 20:53:00,
2013-02-18 14:02:00,64.0,8.0,29.90,North,360,1.0,-999.0,11,-99.99,,,-99.99,,2013-02-18 21:02:00,
2013-02-18 14:11:00,64.0,8.0,29.90,North,360,1.0,-999.0,11,-99.99,,,-99.99,,2013-02-18 21:11:00,
2013-02-18 14:21:00,64.0,8.0,29.88,NE,39,0.0,-999.0,11,-99.99,,,-99.99,,2013-02-18 21:21:00,
2013-02-18 14:31:00,65.0,9.0,29.88,NNE,21,1.0,-999.0,11,-99.99,,,-99.99,,2013-02-18 21:31:00,
2013-02-18 14:41:00,65.0,9.0,29.88,NNE,21,1.0,-999.0,11,-99.99,,,-99.99,,2013-02-18 21:41:00,
2013-02-18 14:52:00,65.0,9.0,29.88,NNE,21,1.0,-999.0,11,-99.99,,,-99.99,,2013-02-18 21:52:00,
2013-02-18 15:01:00,64.0,6.0,29.88,NNE,24,0.0,-999.0,10,-99.99,,,-99.99,,2013-02-18 22:01:00,
2013-02-18 15:11:00,64.0,6.0,29.88,NNW,333,0.0,-999.0,10,-99.99,,,-99.99,,2013-02-18 22:11:00,
2013-02-18 15:22:00,64.0,6.0,29.88,NNW,333,0.0,-999.0,10,-99.99,,,-99.99,,2013-02-18 22:22:00,
2013-02-18 15:32:00,64.0,6.0,29.88,NW,319,7.0,-999.0,10,-99.99,,,-99.99,,2013-02-18 22:32:00,
2013-02-18 15:53:00,63.0,6.0,29.88,SSW,210,4.0,-999.0,10,-99.99,,,-99.99,,2013-02-18 22:53:00,
2013-02-18 16:01:00,63.0,6.0,29.88,WNW,295,2.0,-999.0,10,-99.99,,,-99.99,,2013-02-18 23:01:00,
2013-02-18 16:11:00,63.0,6.0,29.88,WNW,295,2.0,-999.0,10,-99.99,,,-99.99,,2013-02-18 23:11:00,
2013-02-18 16:21:00,63.0,6.0,29.88,West,281,0.0,-999.0,10,-99.99,,,-99.99,,2013-02-18 23:21:00,
2013-02-18 16:31:00,63.0,6.0,29.88,WNW,292,2.0,-999.0,10,-99.99,,,-99.99,,2013-02-18 23:31:00,
2013-02-18 16:41:00,63.0,6.0,29.88,WNW,292,2.0,-999.0,10,-99.99,,,-99.99,,2013-02-18 23:41:00,
2013-02-18 16:53:00,62.0,5.0,29.89,South,180,2.0,-999.0,10,-99.99,,,-99.99,,2013-02-18 23:53:00,
2013-02-18 17:01:00,61.0,4.0,29.89,WSW,252,2.0,-999.0,10,-99.99,,,-99.99,,2013-02-19 00:01:00,
2013-02-18 17:11:00,61.0,4.0,29.89,WSW,252,2.0,-999.0,10,-99.99,,,-99.99,,2013-02-19 00:11:00,
2013-02-18 17:21:00,61.0,6.0,29.89,WNW,302,1.0,-999.0,11,-99.99,,,-99.99,,2013-02-19 00:21:00,
2013-02-18 17:32:00,60.0,5.0,29.89,SSW,207,2.0,-999.0,11,-99.99,,,-99.99,,2013-02-19 00:32:00,
2013-02-18 17:53:00,60.0,7.0,29.89,SSW,207,0.0,-999.0,12,-99.99,,,-99.99,,2013-02-19 00:53:00,
2013-02-18 18:02:00,59.0,8.0,29.89,SSW,207,0.0,-999.0,13,-99.99,,,-99.99,,2013-02-19 01:02:00,
2013-02-18 18:11:00,59.0,8.0,29.89,SSW,207,0.0,-999.0,13,-99.99,,,-99.99,,2013-02-19 01:11:00,
2013-02-18 18:22:00,58.0,7.0,29.89,SSW,207,0.0,-999.0,13,-99.99,,,-99.99,,2013-02-19 01:22:00,
2013-02-18 18:32:00,58.0,9.0,29.89,SSW,207,1.0,-999.0,14,-99.99,,,-99.99,,2013-02-19 01:32:00,
2013-02-18 18:42:00,58.0,9.0,29.89,SSW,207,1.0,-999.0,14,-99.99,,,-99.99,,2013-02-19 01:42:00,
2013-02-18 18:54:00,57.0,10.0,29.88,SSW,207,0.0,-999.0,15,-99.99,,,-99.99,,2013-02-19 01:54:00,
2013-02-18 19:01:00,56.0,12.0,29.88,SSW,207,2.0,-999.0,17,-99.99,,,-99.99,,2013-02-19 02:01:00,
2013-02-18 19:11:00,56.0,12.0,29.88,SSW,207,2.0,-999.0,17,-99.99,,,-99.99,,2013-02-19 02:11:00,
2013-02-18 19:21:00,53.0,12.0,29.89,SSW,207,3.0,-999.0,19,-99.99,,,-99.99,,2013-02-19 02:21:00,
2013-02-18 19:32:00,52.0,10.0,29.90,SSW,211,2.0,-999.0,18,-99.99,,,-99.99,,2013-02-19 02:32:00,
2013-02-18 19:42:00,52.0,10.0,29.90,SSW,211,2.0,-999.0,18,-99.99,,,-99.99,,2013-02-19 02:42:00,
2013-02-18 19:54:00,52.0,10.0,29.90,SSW,211,0.0,-999.0,18,-99.99,,,-99.99,,2013-02-19 02:54:00,
2013-02-18 20:02:00,52.0,14.0,29.90,SSW,211,1.0,-999.0,22,-99.99,,,-99.99,,2013-02-19 03:02:00,
2013-02-18 20:11:00,52.0,14.0,29.90,SSW,211,1.0,-999.0,22,-99.99,,,-99.99,,2013-02-19 03:11:00,
2013-02-18 20:22:00,50.0,12.0,29.90,SSW,211,0.0,-999.0,21,-99.99,,,-99.99,,2013-02-19 03:22:00,
2013-02-18 20:31:00,48.0,10.0,29.90,SSW,211,1.0,-999.0,21,-99.99,,,-99.99,,2013-02-19 03:31:00,
2013-02-18 20:42:00,48.0,10.0,29.90,SSW,211,1.0,-999.0,21,-99.99,,,-99.99,,2013-02-19 03:42:00,
2013-02-18 20:53:00,48.0,11.0,29.90,SSW,211,0.0,-999.0,22,-99.99,,,-99.99,,2013-02-19 03:53:00,
2013-02-18 21:01:00,48.0,11.0,29.90,SSW,211,0.0,-999.0,22,-99.99,,,-99.99,,2013-02-19 04:01:00,
2013-02-18 21:12:00,48.0,11.0,29.90,SSW,211,0.0,-999.0,22,-99.99,,,-99.99,,2013-02-19 04:12:00,
2013-02-18 21:21:00,48.0,11.0,29.90,SSW,211,0.0,-999.0,22,-99.99,,,-99.99,,2013-02-19 04:21:00,
2013-02-18 21:32:00,45.0,13.0,29.90,SSW,211,0.0,-999.0,27,-99.99,,,-99.99,,2013-02-19 04:32:00,
2013-02-18 21:44:00,45.0,13.0,29.90,SSW,211,0.0,-999.0,27,-99.99,,,-99.99,,2013-02-19 04:44:00,
2013-02-18 21:54:00,45.0,12.0,29.91,SW,215,2.0,-999.0,26,-99.99,,,-99.99,,2013-02-19 04:54:00,
2013-02-18 22:01:00,45.0,11.0,29.91,SW,215,0.0,-999.0,25,-99.99,,,-99.99,,2013-02-19 05:01:00,
2013-02-18 22:12:00,45.0,11.0,29.91,SW,215,0.0,-999.0,25,-99.99,,,-99.99,,2013-02-19 05:12:00,
2013-02-18 22:22:00,45.0,12.0,29.91,SW,215,0.0,-999.0,26,-99.99,,,-99.99,,2013-02-19 05:22:00,
2013-02-18 22:32:00,45.0,12.0,29.91,SW,215,0.0,-999.0,26,-99.99,,,-99.99,,2013-02-19 05:32:00,
2013-02-18 22:42:00,45.0,12.0,29.91,SW,215,0.0,-999.0,26,-99.99,,,-99.99,,2013-02-19 05:42:00,
2013-02-18 22:52:00,45.0,9.0,29.91,SW,215,1.0,-999.0,23,-99.99,,,-99.99,,2013-02-19 05:52:00,
2013-02-18 23:02:00,46.0,11.0,29.91,SSW,210,0.0,-999.0,24,-99.99,,,-99.99,,2013-02-19 06:02:00,
2013-02-18 23:11:00,46.0,11.0,29.91,SSW,210,0.0,-999.0,24,-99.99,,,-99.99,,2013-02-19 06:11:00,
2013-02-18 23:21:00,46.0,10.0,29.91,SSW,211,0.0,-999.0,23,-99.99,,,-99.99,,2013-02-19 06:21:00,
2013-02-18 23:32:00,46.0,9.0,29.90,SSW,211,1.0,-999.0,22,-99.99,,,-99.99,,2013-02-19 06:32:00,
2013-02-18 23:41:00,46.0,9.0,29.90,SSW,211,1.0,-999.0,22,-99.99,,,-99.99,,2013-02-19 06:41:00,
2013-02-18 23:52:00,46.0,9.0,29.89,SSW,205,1.0,-999.0,22,-99.99,,,-99.99,,2013-02-19 06:52:00,